Piraeus, Greece
Current Conditions -  °F | °C
As of 2:20 PM on Saturday 22 Nov 2014 (Local Time) from LGEL Reporting Station
Scattered Clouds Scattered Clouds  
Wind Chill: 61°   Ceiling: Unl
Heat Index: 61°   Visibility: 6mi
Dew Point: 36°   Wind: 7mph
Humidity: 39%   Direction: 350°N
Pressure: 30.18"   Gusts: NA
Location:  37.95°N, 23.63°E
Report Text: LGEL 221120Z 35006KT 9999 FEW030 SCT180 16/02 Q1022
Loading
Personal Weather Stations






























Interactive Weather Map New forecast layout! Learn more

10-Day Weather Forecast

Advertisements
Track Severe Weather on mobile